createdAt,value
2022-09-10T00:00:10.611Z,1.30
2022-09-10T00:01:10.599Z,1.60
2022-09-10T00:02:10.663Z,1.40
2022-09-10T00:03:10.687Z,1.90
2022-09-10T00:04:10.592Z,1.80
2022-09-10T00:05:10.602Z,1.80
2022-09-10T00:06:10.600Z,1.80
2022-09-10T00:07:10.584Z,1.80
2022-09-10T00:08:10.603Z,1.50
2022-09-10T00:09:10.586Z,1.70
2022-09-10T00:10:10.576Z,2.10
2022-09-10T00:11:10.577Z,1.40
2022-09-10T00:12:10.572Z,1.70
2022-09-10T00:13:10.575Z,1.70
2022-09-10T00:14:10.574Z,1.60
2022-09-10T00:15:10.597Z,1.50
2022-09-10T00:16:10.656Z,1.30
2022-09-10T00:17:10.567Z,2.10
2022-09-10T00:18:10.563Z,1.90
2022-09-10T00:19:10.556Z,1.80
2022-09-10T00:20:10.565Z,1.30
2022-09-10T00:21:10.560Z,1.90
2022-09-10T00:22:10.556Z,1.90
2022-09-10T00:23:10.554Z,1.60
2022-09-10T00:24:10.543Z,1.50
2022-09-10T00:25:10.544Z,2.00
2022-09-10T00:26:10.549Z,1.60
2022-09-10T00:27:10.546Z,2.20
2022-09-10T00:28:10.545Z,1.70
2022-09-10T00:29:10.561Z,1.80
2022-09-10T00:30:10.532Z,2.30
2022-09-10T00:31:10.598Z,3.20
2022-09-10T00:32:10.533Z,2.00
2022-09-10T00:33:10.531Z,3.10
2022-09-10T00:34:10.541Z,2.20
2022-09-10T00:35:10.521Z,2.40
2022-09-10T00:36:10.519Z,2.60
2022-09-10T00:37:10.522Z,2.50
2022-09-10T00:38:10.517Z,2.60
2022-09-10T00:39:10.517Z,2.20
2022-09-10T00:40:10.576Z,2.30
2022-09-10T00:41:10.513Z,2.30
2022-09-10T00:42:10.515Z,2.70
2022-09-10T00:43:10.504Z,2.40
2022-09-10T00:44:10.502Z,1.90
2022-09-10T00:45:10.493Z,2.20
2022-09-10T00:46:10.499Z,2.00
2022-09-10T00:47:10.518Z,1.60
2022-09-10T00:48:10.492Z,2.50
2022-09-10T00:49:10.489Z,2.10
2022-09-10T00:50:10.481Z,1.50
2022-09-10T00:51:10.482Z,1.90
2022-09-10T00:52:10.479Z,2.20
2022-09-10T00:53:10.473Z,1.70
2022-09-10T00:54:10.471Z,1.60
2022-09-10T00:55:10.472Z,1.50
2022-09-10T00:56:10.469Z,1.80
2022-09-10T00:57:10.469Z,1.60
2022-09-10T00:58:10.463Z,1.40
2022-09-10T00:59:10.462Z,1.90
2022-09-10T01:00:10.455Z,1.50
2022-09-10T01:01:10.502Z,1.70
2022-09-10T01:02:10.516Z,1.20
2022-09-10T01:03:10.467Z,1.20
2022-09-10T01:04:10.442Z,1.70
2022-09-10T01:05:10.449Z,1.40
2022-09-10T01:06:10.448Z,1.50
2022-09-10T01:07:10.436Z,1.30
2022-09-10T01:08:10.437Z,1.70
2022-09-10T01:09:10.443Z,1.40
2022-09-10T01:10:10.440Z,1.30
2022-09-10T01:11:10.436Z,2.00
2022-09-10T01:12:10.433Z,1.40
2022-09-10T01:13:10.429Z,1.30
2022-09-10T01:14:10.425Z,1.40
2022-09-10T01:15:10.424Z,1.50
2022-09-10T01:16:10.460Z,1.20
2022-09-10T01:17:10.412Z,1.40
2022-09-10T01:18:10.429Z,1.00
2022-09-10T01:19:10.436Z,1.30
2022-09-10T01:20:10.421Z,1.40
2022-09-10T01:21:10.408Z,1.30
2022-09-10T01:22:10.422Z,1.30
2022-09-10T01:23:13.492Z,1.10
2022-09-10T01:24:10.409Z,1.20
2022-09-10T01:25:10.404Z,1.20
2022-09-10T01:26:10.399Z,1.80
2022-09-10T01:27:10.400Z,1.50
2022-09-10T01:28:10.398Z,1.30
2022-09-10T01:29:10.398Z,0.90
2022-09-10T01:30:10.386Z,1.30
2022-09-10T01:31:10.434Z,1.10
2022-09-10T01:32:10.389Z,1.10
2022-09-10T01:33:10.383Z,1.20
2022-09-10T01:34:10.390Z,1.20
2022-09-10T01:35:10.394Z,1.30
2022-09-10T01:36:10.379Z,1.20
2022-09-10T01:37:10.384Z,1.20
2022-09-10T01:38:10.380Z,1.20
2022-09-10T01:39:10.365Z,1.40
2022-09-10T01:40:10.437Z,1.40
2022-09-10T01:41:10.368Z,1.20
2022-09-10T01:42:10.374Z,1.30
2022-09-10T01:43:10.367Z,1.60
2022-09-10T01:44:10.369Z,1.30
2022-09-10T01:45:10.360Z,1.10
2022-09-10T01:46:10.358Z,1.40
2022-09-10T01:47:10.356Z,1.00
2022-09-10T01:48:10.372Z,1.10
2022-09-10T01:49:10.351Z,1.20
2022-09-10T01:50:10.344Z,1.00
2022-09-10T01:51:10.370Z,1.50
2022-09-10T01:52:10.343Z,1.10
2022-09-10T01:53:10.339Z,1.40
2022-09-10T01:54:10.352Z,1.20
2022-09-10T01:55:10.336Z,1.00
2022-09-10T01:56:10.372Z,1.40
2022-09-10T01:57:10.342Z,1.30
2022-09-10T01:58:10.337Z,1.00
2022-09-10T01:59:10.330Z,1.30
2022-09-10T02:00:10.331Z,0.90
2022-09-10T02:01:10.354Z,1.00
2022-09-10T02:02:10.354Z,1.20
2022-09-10T02:03:10.316Z,1.20
2022-09-10T02:04:10.325Z,1.60
2022-09-10T02:05:10.312Z,1.10
2022-09-10T02:06:10.316Z,1.40
2022-09-10T02:07:10.332Z,1.20
2022-09-10T02:08:10.314Z,1.20
2022-09-10T02:09:10.315Z,1.10
2022-09-10T02:10:10.300Z,1.00
2022-09-10T02:11:10.298Z,1.10
2022-09-10T02:12:10.298Z,1.00
2022-09-10T02:13:10.292Z,1.00
2022-09-10T02:14:10.304Z,1.10
2022-09-10T02:15:10.298Z,1.10
2022-09-10T02:16:10.354Z,1.20
2022-09-10T02:17:10.302Z,1.20
2022-09-10T02:18:10.286Z,1.40
2022-09-10T02:19:10.288Z,1.10
2022-09-10T02:20:10.314Z,1.20
2022-09-10T02:21:10.282Z,1.20
2022-09-10T02:22:10.291Z,1.10
2022-09-10T02:23:10.293Z,0.90
2022-09-10T02:24:10.316Z,1.20
2022-09-10T02:25:10.277Z,1.20
2022-09-10T02:26:10.297Z,1.10
2022-09-10T02:27:10.271Z,1.00
2022-09-10T02:28:10.287Z,1.10
2022-09-10T02:29:10.271Z,1.20
2022-09-10T02:30:10.269Z,1.00
2022-09-10T02:31:10.314Z,0.90
2022-09-10T02:32:10.272Z,1.20
2022-09-10T02:33:10.269Z,1.00
2022-09-10T02:34:10.264Z,1.20
2022-09-10T02:35:10.252Z,1.30
2022-09-10T02:36:10.250Z,1.30
2022-09-10T02:37:10.254Z,1.10
2022-09-10T02:38:10.250Z,1.30
2022-09-10T02:39:10.271Z,1.10
2022-09-10T02:40:10.274Z,1.20
2022-09-10T02:41:10.243Z,1.10
2022-09-10T02:42:10.252Z,1.00
2022-09-10T02:43:10.239Z,0.90
2022-09-10T02:44:10.241Z,0.90
2022-09-10T02:45:10.238Z,1.00
2022-09-10T02:46:10.270Z,0.90
2022-09-10T02:47:10.235Z,1.10
2022-09-10T02:48:10.229Z,1.00
2022-09-10T02:49:10.235Z,1.10
2022-09-10T02:50:10.233Z,1.10
2022-09-10T02:51:10.234Z,1.00
2022-09-10T02:52:10.234Z,1.20
2022-09-10T02:53:10.221Z,1.00
2022-09-10T02:54:10.224Z,1.20
2022-09-10T02:55:10.241Z,1.00
2022-09-10T02:56:10.222Z,1.20
2022-09-10T02:57:10.215Z,1.00
2022-09-10T02:58:10.217Z,1.10
2022-09-10T02:59:10.216Z,1.30
2022-09-10T03:00:10.218Z,1.10
2022-09-10T03:01:10.296Z,1.00
2022-09-10T03:02:10.249Z,1.10
2022-09-10T03:03:10.206Z,1.10
2022-09-10T03:04:10.208Z,1.10
2022-09-10T03:05:10.245Z,1.10
2022-09-10T03:06:10.198Z,1.00
2022-09-10T03:07:10.210Z,1.30
2022-09-10T03:08:10.205Z,1.10
2022-09-10T03:09:10.208Z,1.90
2022-09-10T03:10:10.195Z,1.00
2022-09-10T03:11:10.214Z,0.90
2022-09-10T03:12:10.188Z,1.40
2022-09-10T03:13:10.198Z,1.10
2022-09-10T03:14:10.190Z,0.90
2022-09-10T03:15:10.180Z,1.10
2022-09-10T03:16:10.244Z,1.10
2022-09-10T03:17:10.186Z,1.00
2022-09-10T03:18:10.185Z,1.10
2022-09-10T03:19:10.176Z,1.20
2022-09-10T03:20:10.176Z,1.10
2022-09-10T03:21:10.168Z,1.10
2022-09-10T03:22:10.181Z,1.40
2022-09-10T03:23:10.164Z,1.00
2022-09-10T03:24:10.166Z,0.90
2022-09-10T03:25:10.164Z,1.00
2022-09-10T03:26:10.178Z,1.20
2022-09-10T03:27:10.182Z,1.30
2022-09-10T03:28:10.156Z,1.30
2022-09-10T03:29:10.152Z,1.10
2022-09-10T03:30:10.161Z,1.10
2022-09-10T03:31:10.219Z,1.10
2022-09-10T03:32:10.152Z,1.20
2022-09-10T03:33:10.152Z,1.00
2022-09-10T03:34:10.147Z,1.10
2022-09-10T03:35:10.135Z,1.10
2022-09-10T03:36:10.143Z,1.20
2022-09-10T03:37:10.140Z,1.10
2022-09-10T03:38:10.155Z,1.00
2022-09-10T03:39:10.139Z,0.80
2022-09-10T03:40:10.159Z,1.10
2022-09-10T03:41:10.124Z,1.00
2022-09-10T03:42:10.128Z,1.30
2022-09-10T03:43:10.144Z,0.90
2022-09-10T03:44:10.122Z,1.10
2022-09-10T03:45:10.120Z,1.00
2022-09-10T03:46:10.119Z,0.90
2022-09-10T03:47:10.112Z,1.10
2022-09-10T03:48:10.117Z,1.20
2022-09-10T03:49:10.101Z,0.90
2022-09-10T03:50:10.108Z,1.10
2022-09-10T03:51:10.103Z,1.20
2022-09-10T03:52:10.092Z,1.00
2022-09-10T03:53:10.098Z,1.40
2022-09-10T03:54:10.095Z,1.00
2022-09-10T03:55:10.090Z,1.00
2022-09-10T03:56:10.083Z,1.00
2022-09-10T03:57:10.081Z,1.00
2022-09-10T03:58:10.081Z,1.20
2022-09-10T03:59:10.094Z,1.20
2022-09-10T04:00:10.077Z,1.10
2022-09-10T04:01:10.129Z,1.20
2022-09-10T04:02:10.155Z,1.30
2022-09-10T04:03:10.071Z,1.20
2022-09-10T04:04:10.081Z,1.10
2022-09-10T04:05:10.069Z,1.10
2022-09-10T04:06:10.071Z,1.00
2022-09-10T04:07:10.056Z,1.00
2022-09-10T04:08:10.054Z,1.30
2022-09-10T04:09:10.056Z,1.20
2022-09-10T04:10:10.049Z,1.20
2022-09-10T04:11:10.049Z,1.10
2022-09-10T04:12:10.043Z,0.90
2022-09-10T04:13:10.045Z,0.80
2022-09-10T04:14:10.044Z,0.80
2022-09-10T04:15:10.064Z,1.10
2022-09-10T04:16:10.105Z,1.00
2022-09-10T04:17:10.028Z,1.10
2022-09-10T04:18:10.035Z,0.90
2022-09-10T04:19:10.036Z,1.20
2022-09-10T04:20:10.026Z,1.10
2022-09-10T04:21:10.035Z,1.00
2022-09-10T04:22:10.031Z,1.10
2022-09-10T04:23:10.016Z,1.00
2022-09-10T04:24:10.025Z,0.90
2022-09-10T04:25:10.016Z,1.00
2022-09-10T04:26:10.028Z,1.20
2022-09-10T04:27:10.027Z,1.00
2022-09-10T04:28:10.013Z,1.00
2022-09-10T04:29:10.015Z,1.00
2022-09-10T04:30:10.022Z,1.30
2022-09-10T04:31:10.028Z,1.20
2022-09-10T04:32:10.012Z,1.50
2022-09-10T04:33:10.007Z,0.90
2022-09-10T04:34:10.005Z,0.90
2022-09-10T04:35:09.994Z,1.10
2022-09-10T04:36:10.002Z,1.70
2022-09-10T04:37:10.000Z,1.20
2022-09-10T04:38:10.007Z,1.10
2022-09-10T04:39:09.988Z,1.00
2022-09-10T04:40:10.035Z,1.20
2022-09-10T04:41:09.995Z,0.90
2022-09-10T04:42:09.990Z,1.20
2022-09-10T04:43:09.992Z,1.20
2022-09-10T04:44:09.990Z,1.10
2022-09-10T04:45:09.984Z,1.10
2022-09-10T04:46:10.029Z,1.30
2022-09-10T04:47:09.990Z,1.10
2022-09-10T04:48:09.982Z,1.20
2022-09-10T04:49:09.970Z,1.20
2022-09-10T04:50:09.977Z,1.40
2022-09-10T04:51:17.918Z,1.00
2022-09-10T04:52:09.983Z,1.20
2022-09-10T04:53:09.968Z,0.90
2022-09-10T04:54:09.965Z,1.00
2022-09-10T04:55:09.967Z,0.90
2022-09-10T04:56:09.985Z,1.10
2022-09-10T04:57:09.954Z,1.10
2022-09-10T04:58:09.957Z,1.10
2022-09-10T04:59:09.947Z,1.10
2022-09-10T05:00:09.961Z,1.20
2022-09-10T05:01:10.010Z,1.20
2022-09-10T05:02:09.962Z,1.30
2022-09-10T05:03:09.958Z,1.30
2022-09-10T05:04:09.947Z,1.30
2022-09-10T05:05:09.937Z,1.00
2022-09-10T05:06:09.941Z,1.00
2022-09-10T05:07:09.960Z,1.60
2022-09-10T05:08:09.939Z,1.20
2022-09-10T05:09:09.923Z,1.20
2022-09-10T05:10:09.935Z,1.60
2022-09-10T05:11:09.925Z,1.10
2022-09-10T05:12:09.930Z,1.20
2022-09-10T05:13:09.914Z,1.10
2022-09-10T05:14:09.916Z,1.20
2022-09-10T05:15:09.912Z,1.10
2022-09-10T05:16:09.944Z,1.10
2022-09-10T05:17:09.909Z,1.50
2022-09-10T05:18:09.907Z,1.00
2022-09-10T05:19:09.935Z,1.10
2022-09-10T05:20:09.900Z,1.00
2022-09-10T05:21:09.907Z,1.10
2022-09-10T05:22:09.921Z,1.30
2022-09-10T05:23:09.906Z,1.20
2022-09-10T05:24:09.885Z,1.20
2022-09-10T05:25:09.887Z,1.10
2022-09-10T05:26:09.880Z,0.90
2022-09-10T05:27:09.886Z,1.10
2022-09-10T05:28:09.883Z,1.00
2022-09-10T05:29:09.894Z,1.60
2022-09-10T05:30:09.875Z,1.10
2022-09-10T05:31:09.870Z,1.00
2022-09-10T05:32:09.874Z,1.10
2022-09-10T05:33:09.887Z,0.90
2022-09-10T05:34:09.881Z,1.00
2022-09-10T05:35:09.886Z,1.20
2022-09-10T05:36:09.857Z,1.30
2022-09-10T05:37:09.864Z,1.10
2022-09-10T05:38:09.858Z,1.30
2022-09-10T05:39:09.861Z,1.00
2022-09-10T05:40:09.901Z,1.00
2022-09-10T05:41:09.850Z,1.20
2022-09-10T05:42:09.843Z,1.00
2022-09-10T05:43:09.843Z,1.10
2022-09-10T05:44:09.843Z,0.90
2022-09-10T05:45:09.854Z,1.30
2022-09-10T05:46:09.882Z,1.10
2022-09-10T05:47:09.832Z,0.90
2022-09-10T05:48:09.827Z,1.10
2022-09-10T05:49:09.844Z,1.20
2022-09-10T05:50:09.824Z,1.00
2022-09-10T05:51:09.845Z,1.70
2022-09-10T05:52:09.811Z,1.00
2022-09-10T05:53:09.822Z,1.00
2022-09-10T05:54:09.814Z,1.20
2022-09-10T05:55:09.815Z,1.40
2022-09-10T05:56:09.809Z,1.30
2022-09-10T05:57:09.810Z,1.00
2022-09-10T05:58:09.799Z,0.90
2022-09-10T05:59:09.802Z,1.10
2022-09-10T06:00:09.794Z,1.20
2022-09-10T06:01:09.811Z,1.10
2022-09-10T06:02:09.854Z,1.00
2022-09-10T06:03:09.913Z,1.10
2022-09-10T06:04:09.826Z,0.90
2022-09-10T06:05:09.788Z,1.00
2022-09-10T06:06:09.782Z,1.20
2022-09-10T06:07:09.805Z,0.90
2022-09-10T06:08:09.775Z,1.20
2022-09-10T06:09:09.783Z,1.00
2022-09-10T06:10:09.771Z,1.00
2022-09-10T06:11:09.776Z,1.10
2022-09-10T06:12:09.761Z,1.20
2022-09-10T06:13:09.782Z,1.20
2022-09-10T06:14:09.768Z,1.00
2022-09-10T06:15:09.752Z,0.90
2022-09-10T06:16:09.828Z,1.00
2022-09-10T06:17:09.770Z,1.00
2022-09-10T06:18:09.760Z,1.00
2022-09-10T06:19:09.750Z,1.10
2022-09-10T06:20:09.750Z,0.90
2022-09-10T06:21:09.748Z,1.00
2022-09-10T06:22:09.752Z,1.10
2022-09-10T06:23:09.760Z,0.90
2022-09-10T06:24:09.757Z,1.00
2022-09-10T06:25:09.737Z,1.20
2022-09-10T06:26:09.728Z,0.90
2022-09-10T06:27:09.833Z,1.00
2022-09-10T06:28:09.732Z,1.00
2022-09-10T06:29:09.724Z,0.90
2022-09-10T06:30:09.741Z,1.10
2022-09-10T06:31:09.787Z,0.90
2022-09-10T06:32:09.738Z,0.80
2022-09-10T06:33:09.721Z,0.90
2022-09-10T06:34:09.729Z,1.00
2022-09-10T06:35:09.719Z,0.90
2022-09-10T06:36:09.732Z,0.90
2022-09-10T06:37:09.733Z,0.90
2022-09-10T06:38:09.716Z,0.90
2022-09-10T06:39:09.747Z,1.20
2022-09-10T06:40:09.744Z,1.10
2022-09-10T06:41:09.714Z,1.00
2022-09-10T06:42:09.712Z,1.00
2022-09-10T06:43:09.710Z,1.00
2022-09-10T06:44:09.707Z,1.00
2022-09-10T06:45:09.698Z,1.30
2022-09-10T06:46:26.869Z,1.00
2022-09-10T06:49:09.697Z,0.90
2022-09-10T06:50:09.702Z,1.10
2022-09-10T06:51:09.694Z,1.00
2022-09-10T06:52:09.698Z,1.00
2022-09-10T06:53:09.699Z,0.90
2022-09-10T06:54:09.692Z,1.30
2022-09-10T06:55:09.721Z,1.00
2022-09-10T06:56:09.695Z,0.90
2022-09-10T06:57:09.699Z,1.10
2022-09-10T06:58:09.684Z,1.00
2022-09-10T06:59:09.695Z,1.30
2022-09-10T07:00:09.700Z,0.90
2022-09-10T07:01:11.743Z,1.40
2022-09-10T07:02:09.779Z,1.00
2022-09-10T07:03:09.686Z,1.00
2022-09-10T07:04:09.687Z,1.00
2022-09-10T07:05:09.687Z,1.00
2022-09-10T07:06:09.696Z,1.10
2022-09-10T07:07:09.677Z,1.10
2022-09-10T07:08:09.682Z,1.00
2022-09-10T07:09:09.693Z,1.10
2022-09-10T07:10:09.691Z,1.00
2022-09-10T07:11:09.700Z,1.00
2022-09-10T07:12:09.675Z,0.90
2022-09-10T07:13:09.683Z,1.00
2022-09-10T07:14:09.687Z,1.00
2022-09-10T07:15:09.693Z,1.00
2022-09-10T07:16:09.740Z,1.10
2022-09-10T07:17:09.680Z,0.90
2022-09-10T07:18:09.682Z,1.00
2022-09-10T07:19:09.678Z,1.00
2022-09-10T07:20:09.679Z,0.90
2022-09-10T07:21:09.677Z,0.90
2022-09-10T07:22:09.684Z,1.20
2022-09-10T07:23:12.641Z,0.90
2022-09-10T07:24:09.689Z,1.10
2022-09-10T07:25:09.680Z,1.00
2022-09-10T07:26:09.714Z,1.50
2022-09-10T07:27:09.692Z,1.00
2022-09-10T07:28:09.669Z,1.10
2022-09-10T07:29:09.689Z,1.00
2022-09-10T07:30:09.685Z,0.90
2022-09-10T07:31:09.725Z,1.00
2022-09-10T07:32:13.380Z,0.90
2022-09-10T07:33:09.677Z,1.20
2022-09-10T07:34:09.666Z,1.30
2022-09-10T07:35:09.660Z,1.40
2022-09-10T07:36:09.679Z,1.00
2022-09-10T07:37:09.901Z,0.90
2022-09-10T07:38:09.905Z,1.30
2022-09-10T07:39:09.910Z,1.20
2022-09-10T07:40:09.907Z,1.00
2022-09-10T07:41:09.665Z,1.10
2022-09-10T07:42:09.661Z,1.20
2022-09-10T07:43:09.692Z,0.90
2022-09-10T07:44:09.672Z,1.00
2022-09-10T07:45:09.675Z,1.40
2022-09-10T07:46:09.694Z,1.20
2022-09-10T07:47:09.668Z,1.00
2022-09-10T07:48:09.672Z,1.00
2022-09-10T07:49:09.669Z,1.10
2022-09-10T07:50:09.670Z,1.40
2022-09-10T07:51:09.665Z,1.10
2022-09-10T07:52:09.666Z,1.20
2022-09-10T07:53:09.665Z,1.40
2022-09-10T07:54:09.666Z,1.30
2022-09-10T07:55:09.668Z,1.20
2022-09-10T07:56:09.665Z,1.10
2022-09-10T07:57:09.657Z,1.00
2022-09-10T07:58:09.659Z,1.50
2022-09-10T07:59:09.689Z,1.20
2022-09-10T08:00:09.699Z,1.40
2022-09-10T08:01:09.734Z,1.20
2022-09-10T08:02:09.700Z,1.30
2022-09-10T08:03:09.667Z,1.10
2022-09-10T08:04:09.649Z,1.30
2022-09-10T08:05:09.688Z,1.20
2022-09-10T08:06:09.664Z,1.30
2022-09-10T08:07:09.652Z,1.50
2022-09-10T08:08:09.675Z,1.20
2022-09-10T08:09:09.655Z,1.20
2022-09-10T08:10:09.645Z,1.30
2022-09-10T08:11:11.877Z,1.50
2022-09-10T08:12:09.649Z,1.30
2022-09-10T08:13:09.650Z,1.60
2022-09-10T08:14:09.669Z,1.20
2022-09-10T08:15:09.646Z,1.30
2022-09-10T08:16:09.712Z,1.30
2022-09-10T08:17:09.647Z,1.50
2022-09-10T08:18:09.633Z,1.20
2022-09-10T08:19:09.629Z,1.20
2022-09-10T08:20:09.627Z,1.40
2022-09-10T08:21:09.619Z,1.10
2022-09-10T08:22:13.447Z,1.00
2022-09-10T08:23:09.631Z,1.20
2022-09-10T08:24:09.635Z,1.40
2022-09-10T08:25:09.618Z,1.20
2022-09-10T08:26:09.616Z,1.50
2022-09-10T08:27:09.618Z,1.30
2022-09-10T08:28:09.614Z,1.20
2022-09-10T08:29:09.607Z,1.40
2022-09-10T08:30:09.615Z,1.40
2022-09-10T08:31:09.668Z,1.60
2022-09-10T08:32:09.598Z,1.30
2022-09-10T08:33:09.602Z,1.30
2022-09-10T08:34:09.598Z,1.20
2022-09-10T08:35:09.590Z,1.50
2022-09-10T08:36:09.598Z,1.70
2022-09-10T08:37:09.605Z,1.30
2022-09-10T08:38:09.585Z,1.40
2022-09-10T08:39:09.581Z,1.50
2022-09-10T08:40:09.649Z,1.60
2022-09-10T08:41:09.589Z,1.40
2022-09-10T08:42:09.585Z,1.10
2022-09-10T08:43:09.572Z,1.10
2022-09-10T08:44:09.575Z,1.70
2022-09-10T08:45:09.581Z,1.40
2022-09-10T08:46:09.598Z,1.50
2022-09-10T08:47:09.583Z,1.40
2022-09-10T08:48:09.570Z,1.30
2022-09-10T08:49:09.560Z,1.20
2022-09-10T08:50:09.584Z,1.30
2022-09-10T08:51:09.557Z,1.80
2022-09-10T08:52:09.554Z,1.30
2022-09-10T08:53:09.554Z,1.30
2022-09-10T08:54:09.551Z,1.20
2022-09-10T08:55:09.552Z,1.60
2022-09-10T08:56:09.547Z,1.40
2022-09-10T08:57:09.546Z,1.70
2022-09-10T08:58:09.546Z,1.20
2022-09-10T08:59:09.552Z,1.30
2022-09-10T09:00:09.568Z,1.20
2022-09-10T09:01:09.629Z,1.30
2022-09-10T09:02:09.550Z,1.50
2022-09-10T09:03:09.594Z,1.10
2022-09-10T09:04:09.547Z,1.50
2022-09-10T09:05:09.526Z,1.20
2022-09-10T09:06:09.728Z,1.60
2022-09-10T09:07:09.531Z,1.40
2022-09-10T09:08:09.545Z,1.70
2022-09-10T09:09:13.472Z,1.40
2022-09-10T09:10:09.572Z,1.00
2022-09-10T09:11:09.515Z,1.90
2022-09-10T09:12:09.525Z,1.30
2022-09-10T09:13:09.501Z,1.60
2022-09-10T09:14:09.509Z,1.60
2022-09-10T09:15:09.505Z,1.70
2022-09-10T09:16:09.568Z,1.20
2022-09-10T09:17:09.492Z,1.60
2022-09-10T09:18:09.505Z,1.60
2022-09-10T09:19:09.517Z,1.70
2022-09-10T09:20:09.496Z,1.20
2022-09-10T09:21:09.495Z,1.60
2022-09-10T09:22:09.487Z,1.40
2022-09-10T09:23:09.491Z,1.50
2022-09-10T09:24:13.472Z,1.60
2022-09-10T09:25:09.472Z,1.60
2022-09-10T09:26:09.477Z,1.70
2022-09-10T09:27:09.485Z,1.30
2022-09-10T09:28:09.476Z,1.80
2022-09-10T09:29:09.470Z,1.80
2022-09-10T09:30:09.471Z,1.40
2022-09-10T09:31:09.798Z,1.40
2022-09-10T09:32:12.224Z,1.40
2022-09-10T09:33:09.470Z,1.20
2022-09-10T09:34:09.457Z,1.30
2022-09-10T09:35:09.487Z,1.30
2022-09-10T09:36:09.455Z,1.20
2022-09-10T09:37:09.451Z,1.40
2022-09-10T09:38:09.453Z,1.10
2022-09-10T09:39:09.443Z,1.10
2022-09-10T09:40:09.508Z,1.30
2022-09-10T09:41:09.446Z,1.60
2022-09-10T09:42:09.447Z,1.40
2022-09-10T09:43:09.448Z,1.30
2022-09-10T09:44:09.433Z,1.40
2022-09-10T09:45:09.436Z,1.20
2022-09-10T09:46:09.465Z,1.20
2022-09-10T09:47:09.437Z,1.40
2022-09-10T09:48:09.435Z,1.10
2022-09-10T09:49:09.432Z,1.50
2022-09-10T09:50:09.423Z,1.70
2022-09-10T09:51:09.437Z,1.20
2022-09-10T09:52:09.417Z,1.30
2022-09-10T09:53:09.425Z,1.40
2022-09-10T09:55:16.578Z,1.30
2022-09-10T09:56:09.413Z,1.70
2022-09-10T09:57:09.401Z,1.70
2022-09-10T09:58:09.407Z,1.50
2022-09-10T09:59:14.780Z,1.70
2022-09-10T10:00:09.408Z,1.50
2022-09-10T10:01:09.470Z,1.80
2022-09-10T10:02:09.409Z,1.20
2022-09-10T10:03:09.392Z,1.30
2022-09-10T10:04:09.390Z,1.90
2022-09-10T10:05:09.385Z,1.40
2022-09-10T10:06:09.381Z,1.30
2022-09-10T10:07:09.399Z,1.70
2022-09-10T10:08:09.381Z,1.60
2022-09-10T10:09:09.389Z,1.60
2022-09-10T10:10:09.410Z,2.00
2022-09-10T10:11:09.381Z,1.40
2022-09-10T10:12:09.384Z,1.40
2022-09-10T10:13:09.384Z,1.40
2022-09-10T10:14:09.387Z,1.60
2022-09-10T10:15:09.363Z,1.60
2022-09-10T10:16:09.398Z,1.40
2022-09-10T10:17:09.375Z,1.40
2022-09-10T10:18:09.354Z,1.70
2022-09-10T10:19:09.349Z,1.60
2022-09-10T10:20:09.419Z,1.50
2022-09-10T10:21:09.353Z,1.60
2022-09-10T10:22:09.354Z,2.10
2022-09-10T10:23:09.409Z,1.70
2022-09-10T10:24:09.358Z,1.60
2022-09-10T10:25:09.344Z,1.60
2022-09-10T10:26:09.345Z,1.40
2022-09-10T10:27:09.343Z,1.60
2022-09-10T10:28:09.344Z,1.40
2022-09-10T10:29:09.327Z,1.90
2022-09-10T10:30:09.393Z,1.30
2022-09-10T10:31:09.335Z,1.70
2022-09-10T10:32:09.341Z,1.40
2022-09-10T10:33:09.328Z,1.60
2022-09-10T10:34:09.314Z,1.50
2022-09-10T10:35:09.318Z,1.50
2022-09-10T10:36:09.313Z,1.90
2022-09-10T10:37:09.308Z,1.50
2022-09-10T10:38:09.313Z,1.40
2022-09-10T10:39:09.327Z,1.70
2022-09-10T10:40:09.437Z,1.40
2022-09-10T10:41:09.296Z,1.60
2022-09-10T10:42:09.298Z,1.60
2022-09-10T10:43:09.297Z,2.10
2022-09-10T10:44:09.300Z,1.50
2022-09-10T10:45:09.289Z,1.50
2022-09-10T10:46:11.898Z,1.20
2022-09-10T10:47:09.289Z,1.50
2022-09-10T10:48:09.288Z,1.50
2022-09-10T10:49:09.282Z,1.80
2022-09-10T10:50:09.295Z,1.60
2022-09-10T10:51:09.287Z,1.90
2022-09-10T10:52:09.282Z,1.60
2022-09-10T10:53:09.274Z,1.30
2022-09-10T10:54:09.274Z,2.00
2022-09-10T10:55:09.285Z,1.20
2022-09-10T10:56:09.264Z,1.60
2022-09-10T10:57:09.261Z,1.40
2022-09-10T10:58:09.266Z,1.50
2022-09-10T10:59:09.260Z,1.20
2022-09-10T11:00:09.253Z,1.70
2022-09-10T11:01:09.252Z,1.60
2022-09-10T11:02:09.349Z,1.70
2022-09-10T11:03:09.245Z,1.60
2022-09-10T11:04:09.243Z,1.60
2022-09-10T11:05:09.242Z,1.50
2022-09-10T11:06:09.255Z,1.70
2022-09-10T11:07:09.243Z,1.60
2022-09-10T11:08:09.249Z,1.80
2022-09-10T11:09:09.234Z,1.70
2022-09-10T11:10:09.228Z,1.20
2022-09-10T11:11:09.247Z,1.20
2022-09-10T11:12:09.227Z,1.50
2022-09-10T11:13:09.230Z,1.80
2022-09-10T11:14:09.239Z,1.50
2022-09-10T11:15:09.216Z,1.70
2022-09-10T11:16:09.248Z,1.60
2022-09-10T11:17:09.210Z,1.30
2022-09-10T11:18:09.216Z,1.60
2022-09-10T11:19:09.215Z,1.10
2022-09-10T11:20:27.794Z,1.90
2022-09-10T11:21:09.200Z,2.00
2022-09-10T11:22:09.197Z,1.50
2022-09-10T11:23:09.206Z,1.40
2022-09-10T11:24:09.196Z,2.30
2022-09-10T11:25:09.210Z,1.60
2022-09-10T11:26:09.188Z,1.40
2022-09-10T11:27:09.212Z,1.50
2022-09-10T11:28:09.184Z,1.60
2022-09-10T11:29:09.191Z,1.50
2022-09-10T11:30:09.187Z,1.70
2022-09-10T11:31:09.223Z,1.30
2022-09-10T11:32:09.173Z,1.80
2022-09-10T11:33:09.172Z,1.50
2022-09-10T11:34:09.179Z,1.60
2022-09-10T11:35:09.171Z,1.80
2022-09-10T11:36:09.162Z,1.50
2022-09-10T11:37:09.173Z,1.50
2022-09-10T11:38:09.164Z,1.60
2022-09-10T11:39:09.157Z,1.50
2022-09-10T11:40:09.188Z,1.70
2022-09-10T11:41:09.156Z,1.40
2022-09-10T11:42:09.156Z,1.40
2022-09-10T11:43:09.176Z,1.50
2022-09-10T11:44:09.156Z,1.40
2022-09-10T11:45:09.147Z,1.80
2022-09-10T11:46:09.173Z,1.90
2022-09-10T11:47:09.146Z,1.40
2022-09-10T11:48:09.159Z,1.30
2022-09-10T11:49:09.129Z,1.30
2022-09-10T11:50:09.136Z,1.60
2022-09-10T11:51:09.140Z,1.40
2022-09-10T11:52:09.126Z,1.40
2022-09-10T11:53:09.130Z,2.20
2022-09-10T11:54:09.123Z,1.50
2022-09-10T11:55:09.127Z,1.60
2022-09-10T11:56:09.120Z,1.60
2022-09-10T11:57:09.123Z,1.70
2022-09-10T11:58:09.127Z,1.90
2022-09-10T11:59:09.130Z,1.60
2022-09-10T12:00:09.108Z,1.40
2022-09-10T12:01:09.108Z,1.60
2022-09-10T12:02:09.202Z,1.70
2022-09-10T12:03:09.095Z,1.80
2022-09-10T12:04:09.097Z,1.70
2022-09-10T12:05:09.103Z,2.10
2022-09-10T12:06:09.101Z,1.80
2022-09-10T12:07:09.102Z,2.10
2022-09-10T12:08:09.090Z,2.00
2022-09-10T12:09:09.083Z,1.30
2022-09-10T12:10:14.024Z,1.80
2022-09-10T12:11:09.074Z,1.50
2022-09-10T12:12:09.082Z,1.80
2022-09-10T12:13:09.078Z,2.00
2022-09-10T12:14:09.073Z,2.10
2022-09-10T12:15:09.086Z,1.70
2022-09-10T12:16:09.140Z,1.80
2022-09-10T12:17:09.067Z,1.70
2022-09-10T12:18:09.102Z,1.80
2022-09-10T12:19:09.061Z,2.10
2022-09-10T12:20:09.060Z,1.80
2022-09-10T12:21:09.057Z,1.90
2022-09-10T12:22:09.048Z,2.10
2022-09-10T12:23:09.118Z,2.00
2022-09-10T12:24:09.055Z,1.90
2022-09-10T12:25:09.046Z,2.00
2022-09-10T12:26:09.037Z,1.80
2022-09-10T12:27:09.048Z,2.10
2022-09-10T12:28:09.099Z,2.70
2022-09-10T12:29:09.034Z,1.80
2022-09-10T12:30:09.029Z,2.10
2022-09-10T12:31:09.107Z,1.90
2022-09-10T12:32:09.021Z,2.30
2022-09-10T12:33:09.017Z,2.10
2022-09-10T12:34:09.021Z,2.10
2022-09-10T12:35:09.088Z,1.90
2022-09-10T12:36:09.011Z,1.90
2022-09-10T12:37:09.080Z,2.00
2022-09-10T12:38:09.011Z,1.80
2022-09-10T12:39:09.011Z,1.80
2022-09-10T12:40:13.010Z,2.20
2022-09-10T12:41:08.992Z,2.60
2022-09-10T12:42:08.991Z,2.60
2022-09-10T12:43:08.998Z,2.30
2022-09-10T12:44:08.986Z,2.40
2022-09-10T12:45:08.986Z,2.10
2022-09-10T12:46:09.085Z,2.20
2022-09-10T12:47:08.997Z,2.00
2022-09-10T12:48:08.988Z,2.50
2022-09-10T12:49:08.984Z,1.90
2022-09-10T12:50:08.981Z,2.90
2022-09-10T12:51:08.976Z,2.20
2022-09-10T12:52:08.972Z,3.00
2022-09-10T12:53:08.972Z,2.00
2022-09-10T12:54:08.974Z,2.00
2022-09-10T12:55:08.967Z,2.40
2022-09-10T12:56:10.906Z,1.90
2022-09-10T12:57:08.960Z,2.10
2022-09-10T12:58:08.967Z,3.00
2022-09-10T12:59:08.958Z,1.80
2022-09-10T13:00:08.945Z,2.60
2022-09-10T13:01:09.039Z,2.10
2022-09-10T13:02:09.033Z,2.40
2022-09-10T13:03:08.963Z,2.30
2022-09-10T13:04:08.938Z,2.10
2022-09-10T13:05:08.936Z,2.40
2022-09-10T13:06:08.930Z,2.50
2022-09-10T13:07:08.926Z,1.80
2022-09-10T13:08:08.932Z,1.80
2022-09-10T13:09:08.926Z,2.30
2022-09-10T13:10:08.931Z,2.30
2022-09-10T13:11:08.930Z,2.40
2022-09-10T13:12:08.943Z,2.20
2022-09-10T13:13:08.915Z,2.40
2022-09-10T13:14:08.908Z,2.30
2022-09-10T13:15:08.913Z,2.40
2022-09-10T13:16:08.936Z,2.30
2022-09-10T13:17:08.907Z,2.30
2022-09-10T13:18:08.906Z,3.20
2022-09-10T13:19:08.919Z,2.40
2022-09-10T13:20:08.903Z,2.80
2022-09-10T13:21:08.897Z,2.90